Flight Track Log - Related Links

Times and Time Zones

All times are in EDT time to prevent confusion due to time zone crossing. See the SWA430 flight status page for this flight to view local times or setup timezone preferences in your user account.

Time Position Orientation Groundspeed Altitude Reporting Facility
EDT Latitude Longitude Course Direction KTS MPH feet Rate Location/Type
Wed 09:21:05 AM 41.8167 -87.7333 177° South 208 239 2,500  Level Chicago TRACON
Wed 09:23:33 AM 41.6733 -87.6100 147° Southeast 276 318 9,900 2,943 Climbing Chicago Center
Wed 09:24:35 AM 41.5989 -87.5706 158° South 289 333 12,800 2,274 Climbing Chicago Center
Wed 09:25:37 AM 41.5200 -87.5503 169° South 288 331 14,600 2,049 Climbing Chicago Center
Wed 09:26:00 AM 40.9731 -87.8736 177° South  Level FlightAware Approximate
Wed 09:26:38 AM 41.4442 -87.5706 191° South 291 335 17,000  Level Chicago Center
Wed 09:27:40 AM 41.3650 -87.6297 209° Southwest 322 371 17,000 1,171 Level Chicago Center
Wed 09:28:41 AM 41.2642 -87.7028 209° Southwest 339 390 19,400 2,244 Climbing Chicago Center
Wed 09:29:43 AM 41.1661 -87.7197 187° South 372 428 21,600 1,902 Climbing Chicago Center
Wed 09:30:44 AM 41.0583 -87.6950 170° South 391 450 23,300 1,756 Climbing Chicago Center
Wed 09:31:46 AM 40.9450 -87.6694 170° South 408 470 25,200 1,694 Climbing Chicago Center
Wed 09:32:48 AM 40.8281 -87.6442 171° South 422 486 26,800 1,415 Climbing Chicago Center
Wed 09:33:49 AM 40.7083 -87.6169 170° South 435 501 28,100 1,171 Climbing Chicago Center
Wed 09:34:51 AM 40.5833 -87.5903 171° South 452 520 29,200 1,210 Climbing Chicago Center
Wed 09:35:53 AM 40.4567 -87.5622 170° South 462 532 30,600 1,610 Climbing Chicago Center
Wed 09:36:54 AM 40.3050 -87.5303 171° South 460 529 32,500 1,561 Climbing Chicago Center
Wed 09:37:56 AM 40.1794 -87.5044 171° South 459 528 33,800 1,316 Climbing Chicago Center
Wed 09:38:48 AM 40.0669 -87.5075 181° South 456 525 35,000 632 Climbing Indianapolis Center
Wed 09:39:50 AM 39.9408 -87.5103 181° South 452 520 35,000 290 Level Indianapolis Center
Wed 09:40:52 AM 39.8156 -87.5128 181° South 451 519 35,600 912 Climbing Indianapolis Center
Wed 09:41:55 AM 39.6914 -87.5128 180° South 446 513 36,900 672 Climbing Indianapolis Center
Wed 09:42:57 AM 39.5719 -87.4628 162° South 448 516 37,000 48 Climbing Indianapolis Center
Wed 09:43:59 AM 39.4525 -87.4192 164° South 445 512 37,000  Level Indianapolis Center
Wed 09:45:01 AM 39.3089 -87.3625 163° South 447 514 37,000  Level Indianapolis Center
Wed 09:46:03 AM 39.1889 -87.3189 164° South 446 513 37,000  Level Indianapolis Center
Wed 09:47:05 AM 39.0683 -87.2739 164° South 449 517 37,000  Level Indianapolis Center
Wed 09:48:07 AM 38.9486 -87.2294 164° South 446 513 37,000  Level Indianapolis Center
Wed 09:49:09 AM 38.8275 -87.1847 164° South 450 518 37,000  Level Indianapolis Center
Wed 09:50:11 AM 38.7069 -87.1400 164° South 447 514 37,000  Level Indianapolis Center
Wed 09:51:13 AM 38.5861 -87.0953 164° South 450 518 37,000  Level Indianapolis Center
Wed 09:52:15 AM 38.4653 -87.0508 164° South 448 516 37,000  Level Indianapolis Center
Wed 09:53:17 AM 38.3269 -87.0003 164° South 451 519 37,000  Level Indianapolis Center
Wed 09:54:19 AM 38.2064 -86.9606 165° South 448 516 37,000  Level Indianapolis Center
Wed 09:55:21 AM 38.0928 -86.9164 163° South 450 518 37,000  Level Indianapolis Center
Wed 09:56:23 AM 37.9467 -86.8639 164° South 453 521 37,000  Level Indianapolis Center
Wed 09:57:25 AM 37.8242 -86.8197 164° South 456 525 37,000  Level Indianapolis Center
Wed 09:58:27 AM 37.7022 -86.7750 164° South 455 524 37,000  Level Indianapolis Center
Wed 09:59:29 AM 37.5797 -86.7311 164° South 457 526 37,000  Level Indianapolis Center
Wed 10:00:31 AM 37.4511 -86.6850 164° South 454 522 37,000  Level Indianapolis Center
Wed 10:01:08 AM 37.3706 -86.6589 166° South 459 528 37,000  Level Memphis Center
Wed 10:02:08 AM 37.2525 -86.6175 164° South 452 520 37,000  Level Memphis Center
Wed 10:03:08 AM 37.1472 -86.5783 163° South 452 520 37,000  Level Memphis Center
Wed 10:04:08 AM 37.0292 -86.5344 163° South 442 509 37,000  Level Memphis Center
Wed 10:05:08 AM 36.9114 -86.4936 165° South 442 509 37,000  Level Memphis Center
Wed 10:06:09 AM 36.7911 -86.4525 165° South 442 509 37,000  Level Memphis Center
Wed 10:07:08 AM 36.6753 -86.4092 163° South 442 509 37,000  Level Memphis Center
Wed 10:08:08 AM 36.5444 -86.3639 164° South 442 509 37,000  Level Memphis Center
Wed 10:09:08 AM 36.4244 -86.3233 165° South 447 514 37,000  Level Memphis Center
Wed 10:10:08 AM 36.3042 -86.2803 164° South 447 514 37,000  Level Memphis Center
Wed 10:11:08 AM 36.1861 -86.2425 166° South 442 509 37,000  Level Memphis Center
Wed 10:12:08 AM 36.0681 -86.1997 164° South 442 509 37,000  Level Memphis Center
Wed 10:13:08 AM 35.9500 -86.1594 165° South 442 509 37,000  Level Memphis Center
Wed 10:15:27 AM 35.6764 -86.0686 165° South 446 513 37,000  Level Atlanta Center
Wed 10:16:27 AM 35.5583 -86.0300 165° South 446 513 37,000  Level Atlanta Center
Wed 10:17:27 AM 35.4628 -85.9969 164° South 446 513 37,000  Level Atlanta Center
Wed 10:18:27 AM 35.3239 -85.9453 163° South 446 513 37,000  Level Atlanta Center
Wed 10:19:27 AM 35.2014 -85.9044 165° South 453 521 37,000  Level Atlanta Center
Wed 10:20:27 AM 35.0828 -85.8714 167° South 448 516 37,000  Level Atlanta Center
Wed 10:21:27 AM 34.9667 -85.8333 165° South 448 516 37,000  Level Atlanta Center
Wed 10:22:27 AM 34.8483 -85.7928 164° South 448 516 37,000  Level Atlanta Center
Wed 10:23:27 AM 34.7278 -85.7497 164° South 443 510 37,000  Level Atlanta Center
Wed 10:24:27 AM 34.6136 -85.7147 166° South 443 510 37,000  Level Atlanta Center
Wed 10:25:27 AM 34.4950 -85.6744 164° South 443 510 37,000  Level Atlanta Center
Wed 10:26:27 AM 34.4036 -85.6475 166° South 438 504 37,000  Level Atlanta Center
Wed 10:27:27 AM 34.2664 -85.6022 165° South 426 490 37,000  Level Atlanta Center
Wed 10:28:27 AM 34.1458 -85.5625 165° South 433 498 37,000  Level Atlanta Center
Wed 10:29:27 AM 34.0294 -85.5253 165° South 438 504 37,000  Level Atlanta Center
Wed 10:30:27 AM 33.9131 -85.4881 165° South 433 498 37,000  Level Atlanta Center
Wed 10:31:27 AM 33.7925 -85.4486 165° South 433 498 37,000  Level Atlanta Center
Wed 10:32:27 AM 33.6739 -85.4117 165° South 433 498 37,000  Level Atlanta Center
Wed 10:33:27 AM 33.5533 -85.3725 165° South 444 511 37,000  Level Atlanta Center
Wed 10:34:27 AM 33.4306 -85.3308 164° South 444 511 37,000  Level Atlanta Center
Wed 10:35:27 AM 33.3119 -85.2942 166° South 451 519 37,000  Level Atlanta Center
Wed 10:36:27 AM 33.1914 -85.2550 165° South 451 519 37,000  Level Atlanta Center
Wed 10:37:27 AM 33.0706 -85.2186 166° South 445 512 37,000  Level Atlanta Center
Wed 10:38:27 AM 32.9708 -85.1828 163° South 445 512 37,000  Level Atlanta Center
Wed 10:39:27 AM 32.8417 -85.1417 165° South 450 518 37,000  Level Atlanta Center
Wed 10:40:27 AM 32.7211 -85.0906 160° South 455 524 37,000  Level Atlanta Center
Wed 10:41:27 AM 32.6067 -85.0522 164° South 455 524 37,000  Level Atlanta Center
Wed 10:42:27 AM 32.4839 -85.0092 164° South 450 518 37,000  Level Atlanta Center
Wed 10:43:27 AM 32.3608 -84.9708 165° South 450 518 37,000  Level Atlanta Center
Wed 10:45:04 AM 32.1611 -84.9025 164° South 458 527 37,000  Level Jacksonville Center
Wed 10:46:04 AM 32.0428 -84.8631 164° South 453 521 37,000  Level Jacksonville Center
Wed 10:47:04 AM 31.9181 -84.8236 165° South 453 521 37,000  Level Jacksonville Center
Wed 10:48:04 AM 31.7956 -84.7819 164° South 453 521 37,000  Level Jacksonville Center
Wed 10:49:04 AM 31.6728 -84.7431 165° South 453 521 37,000  Level Jacksonville Center
Wed 10:50:04 AM 31.5481 -84.7014 164° South 453 521 37,000  Level Jacksonville Center
Wed 10:51:04 AM 31.4256 -84.6625 165° South 459 528 37,000  Level Jacksonville Center
Wed 10:52:04 AM 31.3008 -84.6117 161° South 465 535 37,000  Level Jacksonville Center
Wed 10:53:04 AM 31.1828 -84.5464 155° Southeast 465 535 37,000  Level Jacksonville Center
Wed 10:54:04 AM 31.0647 -84.4786 154° Southeast 470 541 37,000  Level Jacksonville Center
Wed 10:55:04 AM 30.9464 -84.4139 155° Southeast 470 541 37,000  Level Jacksonville Center
Wed 10:56:04 AM 30.8303 -84.3489 154° Southeast 476 548 37,000  Level Jacksonville Center
Wed 10:57:04 AM 30.7100 -84.2844 155° Southeast 471 542 37,000  Level Jacksonville Center
Wed 10:58:04 AM 30.5936 -84.2200 155° Southeast 471 542 37,000  Level Jacksonville Center
Wed 10:59:04 AM 30.4669 -84.1483 154° Southeast 465 535 37,000  Level Jacksonville Center
Wed 11:00:04 AM 30.3508 -84.0864 155° Southeast 465 535 37,000  Level Jacksonville Center
Wed 11:01:04 AM 30.2322 -84.0225 155° Southeast 465 535 37,000  Level Jacksonville Center
Wed 11:02:04 AM 30.1139 -83.9611 156° South 465 535 37,000  Level Jacksonville Center
Wed 11:03:04 AM 29.9953 -83.8975 155° Southeast 465 535 37,000  Level Jacksonville Center
Wed 11:04:04 AM 29.8789 -83.8317 154° Southeast 465 535 37,000  Level Jacksonville Center
Wed 11:05:04 AM 29.7603 -83.7706 156° South 465 535 37,000  Level Jacksonville Center
Wed 11:06:04 AM 29.6397 -83.7050 155° Southeast 465 535 37,000  Level Jacksonville Center
Wed 11:07:04 AM 29.5272 -83.6444 155° Southeast 474 545 37,000  Level Jacksonville Center
Wed 11:08:04 AM 29.4067 -83.5792 155° Southeast 479 551 37,000  Level Jacksonville Center
Wed 11:09:04 AM 29.2817 -83.5139 156° South 479 551 37,000  Level Jacksonville Center
Wed 11:10:04 AM 29.1608 -83.4489 155° Southeast 479 551 37,000  Level Jacksonville Center
Wed 11:11:04 AM 29.0358 -83.3842 156° South 479 551 37,000  Level Jacksonville Center
Wed 11:12:04 AM 28.9089 -83.3242 158° South 479 551 37,000  Level Jacksonville Center
Wed 11:13:04 AM 28.7756 -83.2764 163° South 491 565 37,000  Level Jacksonville Center
Wed 11:14:04 AM 28.6419 -83.2261 162° South 501 577 37,000 -1,050 Level Jacksonville Center
Wed 11:15:04 AM 28.5086 -83.1783 163° South 501 577 34,900 -2,200 Descending Jacksonville Center
Wed 11:16:04 AM 28.3689 -83.1261 162° South 496 571 32,600 -2,261 Descending Jacksonville Center
Wed 11:18:31 AM 28.0828 -83.0214 162° South 455 524 27,100 -1,623 Descending Miami Center
Wed 11:19:31 AM 27.9744 -82.9731 158° South 430 495 27,000 -50 Descending Miami Center
Wed 11:20:31 AM 27.8661 -82.9203 157° South 418 481 27,000 -200 Level Miami Center
Wed 11:21:31 AM 27.7583 -82.8536 151° Southeast 423 487 26,600 -750 Descending Miami Center
Wed 11:22:31 AM 27.6444 -82.7844 152° Southeast 423 487 25,500 -1,050 Descending Miami Center
Wed 11:23:31 AM 27.5406 -82.7228 152° Southeast 423 487 24,500 -1,000 Descending Miami Center
Wed 11:24:31 AM 27.4406 -82.6639 152° Southeast 415 478 23,500 -1,250 Descending Miami Center
Wed 11:25:31 AM 27.3531 -82.6106 152° Southeast 409 471 22,000 -1,700 Descending Miami Center
Wed 11:26:31 AM 27.2550 -82.5567 154° Southeast 402 463 20,100 -2,100 Descending Miami Center
Wed 11:27:31 AM 27.1553 -82.4933 151° Southeast 395 455 17,800 -2,150 Descending Miami Center
Wed 11:28:31 AM 27.0633 -82.4422 154° Southeast 376 433 15,800 -1,950 Descending Miami Center
Wed 11:29:31 AM 26.9736 -82.3867 151° Southeast 370 426 13,900 -1,900 Descending Miami Center
Wed 11:30:31 AM 26.8900 -82.3386 153° Southeast 359 413 12,000 -1,950 Descending Miami Center
Wed 11:31:31 AM 26.8061 -82.2881 152° Southeast 349 402 10,000 -1,250 Descending Miami Center
Wed 11:32:31 AM 26.7372 -82.2361 146° Southeast 322 371 9,500 -1,100 Descending Miami Center
Wed 11:33:31 AM 26.6725 -82.1819 143° Southeast 300 345 7,800 -1,450 Descending Miami Center
Wed 11:34:31 AM 26.6094 -82.1350 146° Southeast 287 330 6,600 -1,150 Descending Miami Center
Wed 11:35:31 AM 26.5508 -82.0836 142° Southeast 276 318 5,500 -1,300 Descending Miami Center
Wed 11:36:31 AM 26.5092 -82.0192 126° Southeast 262 302 4,000 -1,300 Descending Miami Center
Wed 11:37:31 AM 26.4717 -81.9550 123° Southeast 256 295 2,900 -1,100 Descending Miami Center
Wed 11:39:00 AM 26.4910 -81.8064 50° Northeast  Level FlightAware Approximate
Wed 11:46:00 AM 26.5333 -81.7500 50° Northeast  Level FlightAware Approximate
Wed 11:47:00 AM 26.5362 -81.7552 50° Northeast  Level Estimated

Login

Don't have an account? Register now (free) for customized features, flight alerts, and more!